createdAt,value
2018-11-13T00:00:15.107Z,4.23
2018-11-13T00:02:43.462Z,4.35
2018-11-13T00:05:11.994Z,4.55
2018-11-13T00:07:40.187Z,4.67
2018-11-13T00:10:09.635Z,4.92
2018-11-13T00:12:37.848Z,4.30
2018-11-13T00:15:06.300Z,4.78
2018-11-13T00:17:34.646Z,3.40
2018-11-13T00:20:02.922Z,4.33
2018-11-13T00:22:31.170Z,4.75
2018-11-13T00:24:59.374Z,3.95
2018-11-13T00:27:27.660Z,3.62
2018-11-13T00:29:55.807Z,4.45
2018-11-13T00:32:24.007Z,3.30
2018-11-13T00:34:52.190Z,3.30
2018-11-13T00:37:20.390Z,3.27
2018-11-13T00:39:48.593Z,3.10
2018-11-13T00:42:16.765Z,3.52
2018-11-13T00:44:44.963Z,3.03
2018-11-13T00:47:13.150Z,2.80
2018-11-13T00:49:41.331Z,3.80
2018-11-13T00:52:09.522Z,3.20
2018-11-13T00:54:37.703Z,3.10
2018-11-13T00:57:05.911Z,3.00
2018-11-13T00:59:34.155Z,2.97
2018-11-13T01:02:02.432Z,2.73
2018-11-13T01:04:30.546Z,2.80
2018-11-13T01:06:58.754Z,2.53
2018-11-13T01:09:26.928Z,2.30
2018-11-13T01:11:55.267Z,2.70
2018-11-13T01:14:23.331Z,3.00
2018-11-13T01:16:51.528Z,3.08
2018-11-13T01:19:19.735Z,2.60
2018-11-13T01:21:47.923Z,2.90
2018-11-13T01:24:16.261Z,2.53
2018-11-13T01:26:44.328Z,2.40
2018-11-13T01:29:12.556Z,3.20
2018-11-13T01:31:40.723Z,2.62
2018-11-13T01:34:08.930Z,2.55
2018-11-13T01:36:37.119Z,2.85
2018-11-13T01:39:07.563Z,2.60
2018-11-13T01:41:35.772Z,2.73
2018-11-13T01:44:03.947Z,2.95
2018-11-13T01:46:32.227Z,2.67
2018-11-13T01:49:00.414Z,2.72
2018-11-13T01:51:28.607Z,2.75
2018-11-13T01:53:56.820Z,2.53
2018-11-13T01:56:24.998Z,2.70
2018-11-13T01:58:53.195Z,2.67
2018-11-13T02:01:21.384Z,2.50
2018-11-13T02:03:49.603Z,2.15
2018-11-13T02:06:17.811Z,2.40
2018-11-13T02:08:46.011Z,2.05
2018-11-13T02:11:14.219Z,2.23
2018-11-13T02:13:42.434Z,1.80
2018-11-13T02:16:10.639Z,2.25
2018-11-13T02:18:38.859Z,3.30
2018-11-13T02:21:07.055Z,2.40
2018-11-13T02:23:35.269Z,2.50
2018-11-13T02:26:03.470Z,2.33
2018-11-13T02:28:31.679Z,1.73
2018-11-13T02:31:01.181Z,1.98
2018-11-13T02:33:30.184Z,2.25
2018-11-13T02:35:58.392Z,2.30
2018-11-13T02:38:26.608Z,2.30
2018-11-13T02:40:54.815Z,2.12
2018-11-13T02:43:23.023Z,2.15
2018-11-13T02:45:51.240Z,1.80
2018-11-13T02:48:19.451Z,1.80
2018-11-13T02:50:47.667Z,1.73
2018-11-13T02:53:15.870Z,2.33
2018-11-13T02:55:44.088Z,2.60
2018-11-13T02:58:12.291Z,2.12
2018-11-13T03:00:40.524Z,2.00
2018-11-13T03:03:08.751Z,1.75
2018-11-13T03:05:36.975Z,1.70
2018-11-13T03:08:05.392Z,2.20
2018-11-13T03:10:33.613Z,1.80
2018-11-13T03:13:01.830Z,1.53
2018-11-13T03:15:30.036Z,1.77
2018-11-13T03:17:58.249Z,1.90
2018-11-13T03:20:26.452Z,1.65
2018-11-13T03:22:54.651Z,2.07
2018-11-13T03:25:23.271Z,1.93
2018-11-13T03:27:51.472Z,1.57
2018-11-13T03:30:23.750Z,1.43
2018-11-13T03:32:52.188Z,2.00
2018-11-13T03:35:20.391Z,2.30
2018-11-13T03:37:48.615Z,1.97
2018-11-13T03:40:17.011Z,2.40
2018-11-13T03:42:46.103Z,1.98
2018-11-13T03:45:14.685Z,2.25
2018-11-13T03:50:18.711Z,1.62
2018-11-13T03:52:47.003Z,1.93
2018-11-13T03:55:15.676Z,1.80
2018-11-13T03:57:44.666Z,1.70
2018-11-13T04:00:14.485Z,1.85
2018-11-13T04:02:42.665Z,1.65
2018-11-13T04:05:18.076Z,1.50
2018-11-13T04:07:47.498Z,1.57
2018-11-13T04:10:16.599Z,1.20
2018-11-13T04:12:44.944Z,1.50
2018-11-13T04:15:14.277Z,1.40
2018-11-13T04:17:42.446Z,2.22
2018-11-13T04:20:12.363Z,2.07
2018-11-13T04:22:40.614Z,1.92
2018-11-13T04:25:08.790Z,1.90
2018-11-13T04:27:37.104Z,1.90
2018-11-13T04:30:06.358Z,1.80
2018-11-13T04:32:34.535Z,2.00
2018-11-13T04:35:02.711Z,1.92
2018-11-13T04:37:30.887Z,2.45
2018-11-13T04:39:59.085Z,2.97
2018-11-13T04:42:27.267Z,3.20
2018-11-13T04:44:55.537Z,2.70
2018-11-13T04:47:23.858Z,2.80
2018-11-13T04:49:52.054Z,2.37
2018-11-13T04:52:20.247Z,2.30
2018-11-13T04:54:48.411Z,3.02
2018-11-13T04:57:16.586Z,2.67
2018-11-13T04:59:44.750Z,3.07
2018-11-13T05:02:12.926Z,3.10
2018-11-13T05:04:41.099Z,3.00
2018-11-13T05:07:09.275Z,3.77
2018-11-13T05:09:37.449Z,4.17
2018-11-13T05:12:05.737Z,4.67
2018-11-13T05:14:33.899Z,3.93
2018-11-13T05:17:02.089Z,3.00
2018-11-13T05:19:30.259Z,3.15
2018-11-13T05:21:58.431Z,2.53
2018-11-13T05:24:26.598Z,3.43
2018-11-13T05:26:54.778Z,2.75
2018-11-13T05:29:22.966Z,3.02
2018-11-13T05:31:51.138Z,3.03
2018-11-13T05:34:19.314Z,3.93
2018-11-13T05:36:47.481Z,2.97
2018-11-13T05:39:15.639Z,3.17
2018-11-13T05:41:43.832Z,2.75
2018-11-13T05:44:11.995Z,3.80
2018-11-13T05:46:40.171Z,2.72
2018-11-13T05:49:08.344Z,3.77
2018-11-13T05:51:36.516Z,3.40
2018-11-13T05:54:04.772Z,2.60
2018-11-13T05:56:32.939Z,3.20
2018-11-13T05:59:01.114Z,3.15
2018-11-13T06:01:29.330Z,2.00
2018-11-13T06:03:57.491Z,3.37
2018-11-13T06:06:25.672Z,2.90
2018-11-13T06:08:53.875Z,2.97
2018-11-13T06:11:22.067Z,2.30
2018-11-13T06:13:50.285Z,2.10
2018-11-13T06:16:18.466Z,2.65
2018-11-13T06:18:46.667Z,2.83
2018-11-13T06:21:14.842Z,2.70
2018-11-13T06:23:43.034Z,2.58
2018-11-13T06:26:11.483Z,3.30
2018-11-13T06:28:39.685Z,2.92
2018-11-13T06:31:07.876Z,3.30
2018-11-13T06:33:36.075Z,2.83
2018-11-13T06:36:04.319Z,3.30
2018-11-13T06:38:32.541Z,3.33
2018-11-13T06:41:00.710Z,2.80
2018-11-13T06:43:28.911Z,3.20
2018-11-13T06:45:57.088Z,2.73
2018-11-13T06:48:25.286Z,2.80
2018-11-13T06:50:53.475Z,3.10
2018-11-13T06:53:21.672Z,2.65
2018-11-13T06:55:52.539Z,3.10
2018-11-13T06:58:21.445Z,2.10
2018-11-13T07:00:49.661Z,2.67
2018-11-13T07:03:17.865Z,2.20
2018-11-13T07:05:46.115Z,3.10
2018-11-13T07:08:14.306Z,3.03
2018-11-13T07:10:42.549Z,2.20
2018-11-13T07:13:10.683Z,2.70
2018-11-13T07:15:40.635Z,2.00
2018-11-13T07:18:08.803Z,2.43
2018-11-13T07:20:36.979Z,2.20
2018-11-13T07:23:05.155Z,2.73
2018-11-13T07:25:33.408Z,3.17
2018-11-13T07:28:01.533Z,2.73
2018-11-13T07:30:29.679Z,2.87
2018-11-13T07:32:57.844Z,2.80
2018-11-13T07:35:26.022Z,2.47
2018-11-13T07:37:56.830Z,2.70
2018-11-13T07:40:25.085Z,6.47
2018-11-13T07:42:53.426Z,4.77
2018-11-13T07:45:21.595Z,3.80
2018-11-13T07:47:50.092Z,4.70
2018-11-13T07:50:18.088Z,2.77
2018-11-13T07:52:46.375Z,2.57
2018-11-13T07:55:15.467Z,1.27
2018-11-13T07:57:43.920Z,2.20
2018-11-13T08:00:14.273Z,3.20
2018-11-13T08:02:43.519Z,3.60
2018-11-13T08:05:11.703Z,4.67
2018-11-13T08:07:40.030Z,3.00
2018-11-13T08:10:09.477Z,4.67
2018-11-13T08:12:38.188Z,2.07
2018-11-13T08:15:08.774Z,2.80
2018-11-13T08:17:37.717Z,2.23
2018-11-13T08:20:08.185Z,2.10
2018-11-13T08:22:36.527Z,2.60
2018-11-13T08:25:05.387Z,2.23
2018-11-13T08:27:33.587Z,2.20
2018-11-13T08:30:02.143Z,2.70
2018-11-13T08:32:30.568Z,1.80
2018-11-13T08:34:59.125Z,1.20
2018-11-13T08:37:27.606Z,1.93
2018-11-13T08:39:55.994Z,6.08
2018-11-13T08:42:24.455Z,2.87
2018-11-13T08:44:52.904Z,2.65
2018-11-13T08:47:21.289Z,1.50
2018-11-13T08:49:49.795Z,2.25
2018-11-13T08:52:18.181Z,1.70
2018-11-13T08:54:46.687Z,2.85
2018-11-13T08:57:15.163Z,2.10
2018-11-13T08:59:44.021Z,3.40
2018-11-13T09:02:12.292Z,3.02
2018-11-13T09:04:40.619Z,3.00
2018-11-13T09:07:08.957Z,2.30
2018-11-13T09:09:37.483Z,2.00
2018-11-13T09:12:06.049Z,2.83
2018-11-13T09:14:34.904Z,2.00
2018-11-13T09:17:03.497Z,3.75
2018-11-13T09:19:32.900Z,3.90
2018-11-13T09:22:01.225Z,3.10
2018-11-13T09:24:29.593Z,3.00
2018-11-13T09:26:57.978Z,2.12
2018-11-13T09:29:26.269Z,1.60
2018-11-13T09:31:55.043Z,1.20
2018-11-13T09:34:23.358Z,1.40
2018-11-13T09:36:51.608Z,1.40
2018-11-13T09:39:20.437Z,1.30
2018-11-13T09:41:48.994Z,1.60
2018-11-13T09:44:17.297Z,1.42
2018-11-13T09:46:45.835Z,1.30
2018-11-13T09:49:14.172Z,1.50
2018-11-13T09:51:42.693Z,1.90
2018-11-13T09:54:11.139Z,1.60
2018-11-13T09:56:39.622Z,2.60
2018-11-13T09:59:08.140Z,2.17
2018-11-13T10:01:36.842Z,2.33
2018-11-13T10:04:05.642Z,2.40
2018-11-13T10:06:33.382Z,3.05
2018-11-13T10:09:01.819Z,3.40
2018-11-13T10:11:30.400Z,3.60
2018-11-13T10:13:58.766Z,3.00
2018-11-13T10:16:27.084Z,3.00
2018-11-13T10:18:55.673Z,3.25
2018-11-13T10:21:24.304Z,2.50
2018-11-13T10:23:52.752Z,2.20
2018-11-13T10:26:21.203Z,1.90
2018-11-13T10:28:49.568Z,1.43
2018-11-13T10:31:18.039Z,1.63
2018-11-13T10:33:46.576Z,1.27
2018-11-13T10:36:15.126Z,1.57
2018-11-13T10:38:43.752Z,1.57
2018-11-13T10:41:12.452Z,1.57
2018-11-13T10:43:40.916Z,1.57
2018-11-13T10:46:09.275Z,1.70
2018-11-13T10:48:37.835Z,1.47
2018-11-13T10:51:06.405Z,0.90
2018-11-13T10:53:34.997Z,1.47
2018-11-13T10:56:03.506Z,1.00
2018-11-13T10:58:31.990Z,1.57
2018-11-13T11:01:05.993Z,1.20
2018-11-13T11:03:39.859Z,1.10
2018-11-13T11:06:08.243Z,1.05
2018-11-13T11:08:36.841Z,0.90
2018-11-13T11:11:05.451Z,0.95
2018-11-13T11:13:34.087Z,1.20
2018-11-13T11:16:02.475Z,0.90
2018-11-13T11:18:30.935Z,0.80
2018-11-13T11:20:59.389Z,0.60
2018-11-13T11:23:27.757Z,0.70
2018-11-13T11:25:56.223Z,0.70
2018-11-13T11:28:24.847Z,0.73
2018-11-13T11:30:53.251Z,1.00
2018-11-13T11:33:21.843Z,0.50
2018-11-13T11:35:50.420Z,0.63
2018-11-13T11:38:18.824Z,0.50
2018-11-13T11:40:47.332Z,0.67
2018-11-13T11:43:15.711Z,0.63
2018-11-13T11:45:44.134Z,0.90
2018-11-13T11:48:12.659Z,0.57
2018-11-13T11:50:41.310Z,0.60
2018-11-13T11:53:09.785Z,0.60
2018-11-13T11:55:38.130Z,0.70
2018-11-13T11:58:06.669Z,0.90
2018-11-13T12:00:35.852Z,0.70
2018-11-13T12:03:04.608Z,0.60
2018-11-13T12:05:32.951Z,0.60
2018-11-13T12:08:01.168Z,0.70
2018-11-13T12:10:29.367Z,0.77
2018-11-13T12:12:57.639Z,0.70
2018-11-13T12:15:25.820Z,0.60
2018-11-13T12:17:54.068Z,0.90
2018-11-13T12:20:22.265Z,0.77
2018-11-13T12:22:50.461Z,0.80
2018-11-13T12:25:20.237Z,0.70
2018-11-13T12:27:47.975Z,0.67
2018-11-13T12:30:17.682Z,0.70
2018-11-13T12:32:46.744Z,0.50
2018-11-13T12:35:15.977Z,0.70
2018-11-13T12:37:44.167Z,0.70
2018-11-13T12:40:15.666Z,0.83
2018-11-13T12:42:46.388Z,0.80
2018-11-13T12:45:12.865Z,0.70
2018-11-13T12:47:41.749Z,0.60
2018-11-13T12:50:10.811Z,0.63
2018-11-13T12:52:39.007Z,0.60
2018-11-13T12:55:09.031Z,0.63
2018-11-13T12:57:38.380Z,0.57
2018-11-13T13:00:15.294Z,0.57
2018-11-13T13:02:43.477Z,0.43
2018-11-13T13:05:11.719Z,0.53
2018-11-13T13:07:40.099Z,0.60
2018-11-13T13:10:10.041Z,0.63
2018-11-13T13:12:38.419Z,0.67
2018-11-13T13:15:08.800Z,0.60
2018-11-13T13:17:37.445Z,1.00
2018-11-13T13:20:10.239Z,0.77
2018-11-13T13:22:38.984Z,0.60
2018-11-13T13:25:09.216Z,0.70
2018-11-13T13:27:37.693Z,0.53
2018-11-13T13:30:07.928Z,0.50
2018-11-13T13:32:36.256Z,0.60
2018-11-13T13:35:14.751Z,1.17
2018-11-13T13:37:42.954Z,2.30
2018-11-13T13:40:11.181Z,0.50
2018-11-13T13:42:39.384Z,0.50
2018-11-13T13:45:07.596Z,3.67
2018-11-13T13:47:35.786Z,6.60
2018-11-13T13:50:04.092Z,2.63
2018-11-13T13:52:32.299Z,5.30
2018-11-13T13:55:00.532Z,6.80
2018-11-13T13:57:28.843Z,10.90
2018-11-13T13:59:57.265Z,5.13
2018-11-13T14:02:25.323Z,5.83
2018-11-13T14:04:53.572Z,5.13
2018-11-13T14:07:21.788Z,6.17
2018-11-13T14:09:50.089Z,2.10
2018-11-13T14:12:18.293Z,2.90
2018-11-13T14:14:46.519Z,1.00
2018-11-13T14:17:14.708Z,3.10
2018-11-13T14:19:42.904Z,1.40
2018-11-13T14:22:11.084Z,1.40
2018-11-13T14:24:39.295Z,1.10
2018-11-13T14:27:07.472Z,0.80
2018-11-13T14:29:35.778Z,0.83
2018-11-13T14:32:03.958Z,0.57
2018-11-13T14:34:32.224Z,0.60
2018-11-13T14:37:00.411Z,0.90
2018-11-13T14:39:28.612Z,1.03
2018-11-13T14:41:56.799Z,0.70
2018-11-13T14:44:25.066Z,0.50
2018-11-13T14:46:53.249Z,1.03
2018-11-13T14:49:21.452Z,0.60
2018-11-13T14:51:49.655Z,0.90
2018-11-13T14:54:17.945Z,1.07
2018-11-13T14:56:46.127Z,1.03
2018-11-13T14:59:14.323Z,0.80
2018-11-13T15:01:42.633Z,0.60
2018-11-13T15:04:10.814Z,0.60
2018-11-13T15:06:39.600Z,0.80
2018-11-13T15:09:08.154Z,0.60
2018-11-13T15:11:36.465Z,0.53
2018-11-13T15:14:04.931Z,0.70
2018-11-13T15:16:33.132Z,0.73
2018-11-13T15:19:01.461Z,0.90
2018-11-13T15:21:29.688Z,1.03
2018-11-13T15:23:57.903Z,0.73
2018-11-13T15:26:26.116Z,0.73
2018-11-13T15:28:54.341Z,0.80
2018-11-13T15:31:22.560Z,0.83
2018-11-13T15:33:50.772Z,0.90
2018-11-13T15:36:19.004Z,0.70
2018-11-13T15:38:47.228Z,0.90
2018-11-13T15:41:15.455Z,0.80
2018-11-13T15:43:43.677Z,0.80
2018-11-13T15:46:11.901Z,1.10
2018-11-13T15:48:40.111Z,1.03
2018-11-13T15:51:09.160Z,1.00
2018-11-13T15:53:36.567Z,1.00
2018-11-13T15:56:04.811Z,0.80
2018-11-13T15:58:33.051Z,1.00
2018-11-13T16:01:01.899Z,1.00
2018-11-13T16:03:34.957Z,1.03
2018-11-13T16:06:03.193Z,1.10
2018-11-13T16:08:31.443Z,0.80
2018-11-13T16:10:59.619Z,0.93
2018-11-13T16:13:27.924Z,0.60
2018-11-13T16:15:56.135Z,1.00
2018-11-13T16:18:25.672Z,0.90
2018-11-13T16:20:53.845Z,0.60
2018-11-13T16:23:22.038Z,0.80
2018-11-13T16:25:50.408Z,0.60
2018-11-13T16:28:18.607Z,0.70
2018-11-13T16:30:47.062Z,0.80
2018-11-13T16:33:15.140Z,0.70
2018-11-13T16:35:43.379Z,0.67
2018-11-13T16:38:12.403Z,1.00
2018-11-13T16:40:41.131Z,0.83
2018-11-13T16:43:08.849Z,0.70
2018-11-13T16:45:37.067Z,0.90
2018-11-13T16:48:06.359Z,0.87
2018-11-13T16:50:35.705Z,1.00
2018-11-13T16:53:04.038Z,0.70
2018-11-13T16:55:37.516Z,0.87
2018-11-13T16:58:06.792Z,1.20
2018-11-13T17:00:35.122Z,1.30
2018-11-13T17:03:03.245Z,1.53
2018-11-13T17:05:31.646Z,1.10
2018-11-13T17:07:59.834Z,1.80
2018-11-13T17:10:29.283Z,1.60
2018-11-13T17:12:58.236Z,1.50
2018-11-13T17:15:27.658Z,1.73
2018-11-13T17:17:56.917Z,1.93
2018-11-13T17:20:25.156Z,2.20
2018-11-13T17:22:53.671Z,1.60
2018-11-13T17:25:23.249Z,2.10
2018-11-13T17:27:52.425Z,1.97
2018-11-13T17:30:22.957Z,1.80
2018-11-13T17:32:51.626Z,1.80
2018-11-13T17:35:21.243Z,1.70
2018-11-13T17:37:50.305Z,2.40
2018-11-13T17:40:21.794Z,2.53
2018-11-13T17:42:50.899Z,2.43
2018-11-13T17:45:24.395Z,3.03
2018-11-13T17:47:52.594Z,3.80
2018-11-13T17:50:23.064Z,2.90
2018-11-13T17:52:51.679Z,2.17
2018-11-13T17:55:20.334Z,2.47
2018-11-13T17:57:50.009Z,2.90
2018-11-13T18:00:26.774Z,2.33
2018-11-13T18:02:55.273Z,2.47
2018-11-13T18:05:24.416Z,2.27
2018-11-13T18:07:54.183Z,2.10
2018-11-13T18:10:24.759Z,2.90
2018-11-13T18:12:53.232Z,2.10
2018-11-13T18:15:22.875Z,2.00
2018-11-13T18:17:51.378Z,2.07
2018-11-13T18:20:24.012Z,2.60
2018-11-13T18:22:52.278Z,2.30
2018-11-13T18:25:22.147Z,2.60
2018-11-13T18:27:51.735Z,2.83
2018-11-13T18:30:25.360Z,2.27
2018-11-13T18:32:54.931Z,2.70
2018-11-13T18:35:24.537Z,3.00
2018-11-13T18:37:53.619Z,4.47
2018-11-13T18:40:22.476Z,3.13
2018-11-13T18:42:51.989Z,3.27
2018-11-13T18:45:22.757Z,3.50
2018-11-13T18:47:50.970Z,3.27
2018-11-13T18:50:22.547Z,3.10
2018-11-13T18:52:50.781Z,3.10
2018-11-13T18:55:19.339Z,2.93
2018-11-13T18:57:49.094Z,3.33
2018-11-13T19:00:24.676Z,2.77
2018-11-13T19:02:52.968Z,2.80
2018-11-13T19:05:21.689Z,2.90
2018-11-13T19:07:50.088Z,2.97
2018-11-13T19:10:27.843Z,3.57
2018-11-13T19:12:57.010Z,3.67
2018-11-13T19:15:25.184Z,4.03
2018-11-13T19:17:53.867Z,4.60
2018-11-13T19:20:23.078Z,4.73
2018-11-13T19:22:51.253Z,4.90
2018-11-13T19:25:22.975Z,6.87
2018-11-13T19:27:51.636Z,7.60
2018-11-13T19:30:20.738Z,7.90
2018-11-13T19:32:48.918Z,8.40
2018-11-13T19:35:17.693Z,9.57
2018-11-13T19:37:46.040Z,10.00
2018-11-13T19:40:17.290Z,9.13
2018-11-13T19:42:46.208Z,10.17
2018-11-13T19:45:14.623Z,6.77
2018-11-13T19:47:42.795Z,7.57
2018-11-13T19:50:13.184Z,7.07
2018-11-13T19:52:41.960Z,7.90
2018-11-13T19:55:11.269Z,8.20
2018-11-13T19:57:39.925Z,8.30
2018-11-13T20:00:09.944Z,8.63
2018-11-13T20:02:38.547Z,8.10
2018-11-13T20:05:07.917Z,10.93
2018-11-13T20:07:36.201Z,8.78
2018-11-13T20:10:07.460Z,8.37
2018-11-13T20:12:35.765Z,8.23
2018-11-13T20:15:03.976Z,9.10
2018-11-13T20:17:32.164Z,9.77
2018-11-13T20:20:00.483Z,10.93
2018-11-13T20:22:28.997Z,9.48
2018-11-13T20:24:56.898Z,9.18
2018-11-13T20:27:25.101Z,10.33
2018-11-13T20:32:27.894Z,8.85
2018-11-13T20:34:56.099Z,9.18
2018-11-13T20:37:24.343Z,8.90
2018-11-13T20:39:52.529Z,9.03
2018-11-13T20:42:20.715Z,8.95
2018-11-13T20:44:49.045Z,10.37
2018-11-13T20:47:17.179Z,13.17
2018-11-13T20:49:45.385Z,12.63
2018-11-13T20:52:16.326Z,13.50
2018-11-13T20:54:44.527Z,12.80
2018-11-13T20:57:12.738Z,10.30
2018-11-13T20:59:40.910Z,10.97
2018-11-13T21:02:09.112Z,11.60
2018-11-13T21:04:37.283Z,11.43
2018-11-13T21:07:05.475Z,9.13
2018-11-13T21:09:33.671Z,10.43
2018-11-13T21:12:01.855Z,9.93
2018-11-13T21:14:30.040Z,8.50
2018-11-13T21:16:58.420Z,8.90
2018-11-13T21:19:26.399Z,7.75
2018-11-13T21:21:54.587Z,6.90
2018-11-13T21:24:22.762Z,8.20
2018-11-13T21:26:50.950Z,7.50
2018-11-13T21:29:19.130Z,7.25
2018-11-13T21:31:47.326Z,6.72
2018-11-13T21:34:15.511Z,7.50
2018-11-13T21:36:43.728Z,7.25
2018-11-13T21:39:12.762Z,6.80
2018-11-13T21:41:40.952Z,6.10
2018-11-13T21:44:09.514Z,6.97
2018-11-13T21:46:38.119Z,5.92
2018-11-13T21:49:06.327Z,6.58
2018-11-13T21:51:35.784Z,6.35
2018-11-13T21:54:03.952Z,6.53
2018-11-13T21:56:32.218Z,5.83
2018-11-13T21:59:00.423Z,6.72
2018-11-13T22:01:28.663Z,6.22
2018-11-13T22:03:56.866Z,5.40
2018-11-13T22:06:24.998Z,5.17
2018-11-13T22:08:53.197Z,5.08
2018-11-13T22:11:21.563Z,5.35
2018-11-13T22:13:49.743Z,5.10
2018-11-13T22:16:17.947Z,5.33
2018-11-13T22:18:46.134Z,5.25
2018-11-13T22:21:14.440Z,6.37
2018-11-13T22:23:42.539Z,5.20
2018-11-13T22:26:10.728Z,6.55
2018-11-13T22:28:39.048Z,5.33
2018-11-13T22:31:07.107Z,5.55
2018-11-13T22:33:35.304Z,4.80
2018-11-13T22:36:03.484Z,4.70
2018-11-13T22:38:31.691Z,6.20
2018-11-13T22:40:59.894Z,5.67
2018-11-13T22:43:28.084Z,6.10
2018-11-13T22:45:56.286Z,5.75
2018-11-13T22:48:24.510Z,6.55
2018-11-13T22:50:52.757Z,6.58
2018-11-13T22:53:20.875Z,4.65
2018-11-13T22:55:49.050Z,6.60
2018-11-13T22:58:17.235Z,6.65
2018-11-13T23:00:47.101Z,6.03
2018-11-13T23:03:19.163Z,6.33
2018-11-13T23:05:48.263Z,6.28
2018-11-13T23:08:17.778Z,6.00
2018-11-13T23:10:45.966Z,6.30
2018-11-13T23:13:14.188Z,5.97
2018-11-13T23:15:42.364Z,6.22
2018-11-13T23:18:10.687Z,5.78
2018-11-13T23:20:38.878Z,5.17
2018-11-13T23:23:07.112Z,5.35
2018-11-13T23:25:35.328Z,6.03
2018-11-13T23:28:03.728Z,4.35
2018-11-13T23:30:31.755Z,5.20
2018-11-13T23:33:00.377Z,5.08
2018-11-13T23:35:28.498Z,4.33
2018-11-13T23:37:57.931Z,4.00
2018-11-13T23:40:27.196Z,4.47
2018-11-13T23:42:55.421Z,4.10
2018-11-13T23:45:24.674Z,4.10
2018-11-13T23:47:52.997Z,3.98
2018-11-13T23:50:21.174Z,3.25
2018-11-13T23:52:50.426Z,3.10
2018-11-13T23:55:18.594Z,3.50
2018-11-13T23:57:47.282Z,3.10
